sensor_id;sensor_type;location;lat;lon;timestamp;temperature;humidity
2435;DHT22;1228;51.022;6.764;2023-02-01T00:01:55;6.60;99.90
2435;DHT22;1228;51.022;6.764;2023-02-01T00:04:20;6.60;99.90
2435;DHT22;1228;51.022;6.764;2023-02-01T00:06:46;6.50;99.90
2435;DHT22;1228;51.022;6.764;2023-02-01T00:09:12;6.50;99.90
2435;DHT22;1228;51.022;6.764;2023-02-01T00:11:38;6.60;99.90
2435;DHT22;1228;51.022;6.764;2023-02-01T00:14:03;6.60;99.90
2435;DHT22;1228;51.022;6.764;2023-02-01T00:16:30;6.70;99.90
2435;DHT22;1228;51.022;6.764;2023-02-01T00:19:03;6.70;99.90
2435;DHT22;1228;51.022;6.764;2023-02-01T00:21:30;6.70;99.90
2435;DHT22;1228;51.022;6.764;2023-02-01T00:23:56;6.70;99.90
2435;DHT22;1228;51.022;6.764;2023-02-01T00:26:34;6.70;99.90
2435;DHT22;1228;51.022;6.764;2023-02-01T00:29:02;6.70;99.90
2435;DHT22;1228;51.022;6.764;2023-02-01T00:31:28;6.60;99.90
2435;DHT22;1228;51.022;6.764;2023-02-01T00:33:54;6.60;99.90
2435;DHT22;1228;51.022;6.764;2023-02-01T00:36:19;6.50;99.90
2435;DHT22;1228;51.022;6.764;2023-02-01T00:38:45;6.50;99.90
2435;DHT22;1228;51.022;6.764;2023-02-01T00:41:14;6.40;99.90
2435;DHT22;1228;51.022;6.764;2023-02-01T00:43:40;6.40;99.90
2435;DHT22;1228;51.022;6.764;2023-02-01T00:46:06;6.40;99.90
2435;DHT22;1228;51.022;6.764;2023-02-01T00:48:32;6.30;99.90
2435;DHT22;1228;51.022;6.764;2023-02-01T00:51:06;6.30;99.90
2435;DHT22;1228;51.022;6.764;2023-02-01T00:53:33;6.20;99.90
2435;DHT22;1228;51.022;6.764;2023-02-01T00:55:59;6.20;99.90
2435;DHT22;1228;51.022;6.764;2023-02-01T00:58:25;6.10;99.90
2435;DHT22;1228;51.022;6.764;2023-02-01T01:01:07;6.10;99.90
2435;DHT22;1228;51.022;6.764;2023-02-01T01:03:35;6.20;99.90
2435;DHT22;1228;51.022;6.764;2023-02-01T01:06:05;6.30;99.90
2435;DHT22;1228;51.022;6.764;2023-02-01T01:08:31;6.30;99.90
2435;DHT22;1228;51.022;6.764;2023-02-01T01:10:56;6.30;99.90
2435;DHT22;1228;51.022;6.764;2023-02-01T01:13:22;6.20;99.90
2435;DHT22;1228;51.022;6.764;2023-02-01T01:15:47;6.20;99.90
2435;DHT22;1228;51.022;6.764;2023-02-01T01:18:13;6.10;99.90
2435;DHT22;1228;51.022;6.764;2023-02-01T01:20:40;6.00;99.90
2435;DHT22;1228;51.022;6.764;2023-02-01T01:23:07;6.00;99.90
2435;DHT22;1228;51.022;6.764;2023-02-01T01:25:40;5.90;99.90
2435;DHT22;1228;51.022;6.764;2023-02-01T01:28:06;5.90;99.90
2435;DHT22;1228;51.022;6.764;2023-02-01T01:30:34;5.80;99.90
2435;DHT22;1228;51.022;6.764;2023-02-01T01:32:59;5.80;99.90
2435;DHT22;1228;51.022;6.764;2023-02-01T01:35:25;5.70;99.90
2435;DHT22;1228;51.022;6.764;2023-02-01T01:37:51;5.70;99.90
2435;DHT22;1228;51.022;6.764;2023-02-01T01:40:16;5.60;99.90
2435;DHT22;1228;51.022;6.764;2023-02-01T01:42:43;5.50;99.90
2435;DHT22;1228;51.022;6.764;2023-02-01T01:45:25;5.40;99.90
2435;DHT22;1228;51.022;6.764;2023-02-01T01:50:48;5.30;99.90
2435;DHT22;1228;51.022;6.764;2023-02-01T01:53:20;5.20;99.90
2435;DHT22;1228;51.022;6.764;2023-02-01T01:55:47;5.20;99.90
2435;DHT22;1228;51.022;6.764;2023-02-01T01:58:17;5.20;99.90
2435;DHT22;1228;51.022;6.764;2023-02-01T02:00:44;5.30;99.90
2435;DHT22;1228;51.022;6.764;2023-02-01T02:03:22;5.30;99.90
2435;DHT22;1228;51.022;6.764;2023-02-01T02:05:50;5.30;99.90
2435;DHT22;1228;51.022;6.764;2023-02-01T02:08:18;5.40;99.90
2435;DHT22;1228;51.022;6.764;2023-02-01T02:10:48;5.50;99.90
2435;DHT22;1228;51.022;6.764;2023-02-01T02:13:34;5.50;99.90
2435;DHT22;1228;51.022;6.764;2023-02-01T02:35:55;5.90;99.90
2435;DHT22;1228;51.022;6.764;2023-02-01T02:43:47;5.90;99.90
2435;DHT22;1228;51.022;6.764;2023-02-01T02:46:42;5.90;99.90
2435;DHT22;1228;51.022;6.764;2023-02-01T02:52:37;5.90;99.90
2435;DHT22;1228;51.022;6.764;2023-02-01T02:55:23;5.90;99.90
2435;DHT22;1228;51.022;6.764;2023-02-01T02:57:50;5.90;99.90
2435;DHT22;1228;51.022;6.764;2023-02-01T03:00:35;5.90;99.90
2435;DHT22;1228;51.022;6.764;2023-02-01T03:03:20;5.90;99.90
2435;DHT22;1228;51.022;6.764;2023-02-01T03:06:12;5.90;99.90
2435;DHT22;1228;51.022;6.764;2023-02-01T03:08:40;5.90;99.90
2435;DHT22;1228;51.022;6.764;2023-02-01T03:11:14;5.90;99.90
2435;DHT22;1228;51.022;6.764;2023-02-01T03:13:52;5.90;99.90
2435;DHT22;1228;51.022;6.764;2023-02-01T03:16:35;6.00;99.90
2435;DHT22;1228;51.022;6.764;2023-02-01T03:19:11;6.00;99.90
2435;DHT22;1228;51.022;6.764;2023-02-01T03:21:57;6.00;99.90
2435;DHT22;1228;51.022;6.764;2023-02-01T03:24:32;6.00;99.90
2435;DHT22;1228;51.022;6.764;2023-02-01T03:28:07;5.90;99.90
2435;DHT22;1228;51.022;6.764;2023-02-01T03:32:44;5.90;99.90
2435;DHT22;1228;51.022;6.764;2023-02-01T03:35:40;5.90;99.90
2435;DHT22;1228;51.022;6.764;2023-02-01T03:41:42;5.80;99.90
2435;DHT22;1228;51.022;6.764;2023-02-01T03:46:59;5.80;99.90
2435;DHT22;1228;51.022;6.764;2023-02-01T03:49:29;5.80;99.90
2435;DHT22;1228;51.022;6.764;2023-02-01T03:51:56;5.80;99.90
2435;DHT22;1228;51.022;6.764;2023-02-01T03:54:24;5.80;99.90
2435;DHT22;1228;51.022;6.764;2023-02-01T03:56:51;5.90;99.90
2435;DHT22;1228;51.022;6.764;2023-02-01T03:59:19;5.90;99.90
2435;DHT22;1228;51.022;6.764;2023-02-01T04:01:44;5.90;99.90
2435;DHT22;1228;51.022;6.764;2023-02-01T04:04:10;5.90;99.90
2435;DHT22;1228;51.022;6.764;2023-02-01T04:06:48;6.00;99.90
2435;DHT22;1228;51.022;6.764;2023-02-01T04:09:14;6.00;99.90
2435;DHT22;1228;51.022;6.764;2023-02-01T04:11:39;6.00;99.90
2435;DHT22;1228;51.022;6.764;2023-02-01T04:14:05;6.00;99.90
2435;DHT22;1228;51.022;6.764;2023-02-01T04:16:31;6.00;99.90
2435;DHT22;1228;51.022;6.764;2023-02-01T04:18:58;6.00;99.90
2435;DHT22;1228;51.022;6.764;2023-02-01T04:21:27;6.00;99.90
2435;DHT22;1228;51.022;6.764;2023-02-01T04:23:53;6.00;99.90
2435;DHT22;1228;51.022;6.764;2023-02-01T04:26:19;6.00;99.90
2435;DHT22;1228;51.022;6.764;2023-02-01T04:28:45;6.00;99.90
2435;DHT22;1228;51.022;6.764;2023-02-01T04:31:13;6.00;99.90
2435;DHT22;1228;51.022;6.764;2023-02-01T04:33:39;6.00;99.90
2435;DHT22;1228;51.022;6.764;2023-02-01T04:36:05;6.00;99.90
2435;DHT22;1228;51.022;6.764;2023-02-01T04:38:30;5.90;99.90
2435;DHT22;1228;51.022;6.764;2023-02-01T04:40:58;5.90;99.90
2435;DHT22;1228;51.022;6.764;2023-02-01T04:43:23;5.80;99.90
2435;DHT22;1228;51.022;6.764;2023-02-01T04:45:50;5.70;99.90
2435;DHT22;1228;51.022;6.764;2023-02-01T04:48:16;5.60;99.90
2435;DHT22;1228;51.022;6.764;2023-02-01T04:50:44;5.60;99.90
2435;DHT22;1228;51.022;6.764;2023-02-01T04:53:15;5.50;99.90
2435;DHT22;1228;51.022;6.764;2023-02-01T04:55:42;5.50;99.90
2435;DHT22;1228;51.022;6.764;2023-02-01T04:58:08;5.40;99.90
2435;DHT22;1228;51.022;6.764;2023-02-01T05:00:33;5.40;99.90
2435;DHT22;1228;51.022;6.764;2023-02-01T05:02:59;5.40;99.90
2435;DHT22;1228;51.022;6.764;2023-02-01T05:05:26;5.30;99.90
2435;DHT22;1228;51.022;6.764;2023-02-01T05:07:51;5.30;99.90
2435;DHT22;1228;51.022;6.764;2023-02-01T05:10:17;5.30;99.90
2435;DHT22;1228;51.022;6.764;2023-02-01T05:12:44;5.30;99.90
2435;DHT22;1228;51.022;6.764;2023-02-01T05:15:29;5.20;99.90
2435;DHT22;1228;51.022;6.764;2023-02-01T05:17:55;5.20;99.90
2435;DHT22;1228;51.022;6.764;2023-02-01T05:20:20;5.10;99.90
2435;DHT22;1228;51.022;6.764;2023-02-01T05:22:46;5.10;99.90
2435;DHT22;1228;51.022;6.764;2023-02-01T05:25:11;5.10;99.90
2435;DHT22;1228;51.022;6.764;2023-02-01T05:27:37;5.10;99.90
2435;DHT22;1228;51.022;6.764;2023-02-01T05:30:04;5.10;99.90
2435;DHT22;1228;51.022;6.764;2023-02-01T05:32:30;5.10;99.90
2435;DHT22;1228;51.022;6.764;2023-02-01T05:34:55;5.10;99.90
2435;DHT22;1228;51.022;6.764;2023-02-01T05:37:22;5.10;99.90
2435;DHT22;1228;51.022;6.764;2023-02-01T05:39:48;5.10;99.90
2435;DHT22;1228;51.022;6.764;2023-02-01T05:42:13;5.10;99.90
2435;DHT22;1228;51.022;6.764;2023-02-01T05:44:39;5.10;99.90
2435;DHT22;1228;51.022;6.764;2023-02-01T05:47:04;5.10;99.90
2435;DHT22;1228;51.022;6.764;2023-02-01T05:49:30;5.10;99.90
2435;DHT22;1228;51.022;6.764;2023-02-01T05:51:56;5.10;99.90
2435;DHT22;1228;51.022;6.764;2023-02-01T05:54:21;5.10;99.90
2435;DHT22;1228;51.022;6.764;2023-02-01T05:56:47;5.10;99.90
2435;DHT22;1228;51.022;6.764;2023-02-01T05:59:12;5.10;99.90
2435;DHT22;1228;51.022;6.764;2023-02-01T06:01:38;5.00;99.90
2435;DHT22;1228;51.022;6.764;2023-02-01T06:04:04;5.00;99.90
2435;DHT22;1228;51.022;6.764;2023-02-01T06:06:29;5.00;99.90
2435;DHT22;1228;51.022;6.764;2023-02-01T06:08:55;5.00;99.90
2435;DHT22;1228;51.022;6.764;2023-02-01T06:11:21;5.00;99.90
2435;DHT22;1228;51.022;6.764;2023-02-01T06:13:46;4.90;99.90
2435;DHT22;1228;51.022;6.764;2023-02-01T06:16:12;4.90;99.90
2435;DHT22;1228;51.022;6.764;2023-02-01T06:18:40;4.90;99.90
2435;DHT22;1228;51.022;6.764;2023-02-01T06:21:07;4.80;99.90
2435;DHT22;1228;51.022;6.764;2023-02-01T06:23:33;4.80;99.90
2435;DHT22;1228;51.022;6.764;2023-02-01T06:26:01;4.80;99.90
2435;DHT22;1228;51.022;6.764;2023-02-01T06:28:28;4.80;99.90
2435;DHT22;1228;51.022;6.764;2023-02-01T06:30:54;4.80;99.90
2435;DHT22;1228;51.022;6.764;2023-02-01T06:33:19;4.80;99.90
2435;DHT22;1228;51.022;6.764;2023-02-01T06:35:45;4.80;99.90
2435;DHT22;1228;51.022;6.764;2023-02-01T06:38:12;4.80;99.90
2435;DHT22;1228;51.022;6.764;2023-02-01T06:40:38;4.80;99.90
2435;DHT22;1228;51.022;6.764;2023-02-01T06:43:04;4.90;99.90
2435;DHT22;1228;51.022;6.764;2023-02-01T06:45:30;5.00;99.90
2435;DHT22;1228;51.022;6.764;2023-02-01T06:47:55;5.00;99.90
2435;DHT22;1228;51.022;6.764;2023-02-01T06:50:21;5.10;99.90
2435;DHT22;1228;51.022;6.764;2023-02-01T06:52:47;5.20;99.90
2435;DHT22;1228;51.022;6.764;2023-02-01T06:55:12;5.20;99.90
2435;DHT22;1228;51.022;6.764;2023-02-01T06:57:38;5.20;99.90
2435;DHT22;1228;51.022;6.764;2023-02-01T07:00:05;5.20;99.90
2435;DHT22;1228;51.022;6.764;2023-02-01T07:02:30;5.30;99.90
2435;DHT22;1228;51.022;6.764;2023-02-01T07:04:56;5.30;99.90
2435;DHT22;1228;51.022;6.764;2023-02-01T07:07:22;5.30;99.90
2435;DHT22;1228;51.022;6.764;2023-02-01T07:09:50;5.30;99.90
2435;DHT22;1228;51.022;6.764;2023-02-01T07:12:16;5.40;99.90
2435;DHT22;1228;51.022;6.764;2023-02-01T07:14:42;5.40;99.90
2435;DHT22;1228;51.022;6.764;2023-02-01T07:17:07;5.40;99.90
2435;DHT22;1228;51.022;6.764;2023-02-01T07:19:33;5.50;99.90
2435;DHT22;1228;51.022;6.764;2023-02-01T07:21:58;5.50;99.90
2435;DHT22;1228;51.022;6.764;2023-02-01T07:24:24;5.50;99.90
2435;DHT22;1228;51.022;6.764;2023-02-01T07:26:50;5.50;99.90
2435;DHT22;1228;51.022;6.764;2023-02-01T07:29:17;5.50;99.90
2435;DHT22;1228;51.022;6.764;2023-02-01T07:31:43;5.50;99.90
2435;DHT22;1228;51.022;6.764;2023-02-01T07:34:08;5.50;99.90
2435;DHT22;1228;51.022;6.764;2023-02-01T07:36:34;5.50;99.90
2435;DHT22;1228;51.022;6.764;2023-02-01T07:39:02;5.50;99.90
2435;DHT22;1228;51.022;6.764;2023-02-01T07:41:28;5.50;99.90
2435;DHT22;1228;51.022;6.764;2023-02-01T07:43:54;5.50;99.90
2435;DHT22;1228;51.022;6.764;2023-02-01T07:46:20;5.20;99.90
2435;DHT22;1228;51.022;6.764;2023-02-01T07:48:46;5.60;99.90
2435;DHT22;1228;51.022;6.764;2023-02-01T07:51:13;5.60;99.90
2435;DHT22;1228;51.022;6.764;2023-02-01T07:53:40;5.60;99.90
2435;DHT22;1228;51.022;6.764;2023-02-01T07:56:14;5.60;99.90
2435;DHT22;1228;51.022;6.764;2023-02-01T07:58:40;5.60;99.90
2435;DHT22;1228;51.022;6.764;2023-02-01T08:01:18;5.60;99.90
2435;DHT22;1228;51.022;6.764;2023-02-01T08:03:57;5.70;99.90
2435;DHT22;1228;51.022;6.764;2023-02-01T08:06:27;5.70;99.90
2435;DHT22;1228;51.022;6.764;2023-02-01T08:08:53;5.70;99.90
2435;DHT22;1228;51.022;6.764;2023-02-01T08:11:20;5.70;99.90
2435;DHT22;1228;51.022;6.764;2023-02-01T08:13:46;5.70;99.90
2435;DHT22;1228;51.022;6.764;2023-02-01T08:16:13;5.70;99.90
2435;DHT22;1228;51.022;6.764;2023-02-01T08:18:40;5.70;99.90
2435;DHT22;1228;51.022;6.764;2023-02-01T08:21:07;5.70;99.90
2435;DHT22;1228;51.022;6.764;2023-02-01T08:23:34;5.70;99.90
2435;DHT22;1228;51.022;6.764;2023-02-01T08:28:39;5.80;99.90
2435;DHT22;1228;51.022;6.764;2023-02-01T08:31:08;5.80;99.90
2435;DHT22;1228;51.022;6.764;2023-02-01T08:33:34;5.80;99.90
2435;DHT22;1228;51.022;6.764;2023-02-01T08:36:03;5.90;99.90
2435;DHT22;1228;51.022;6.764;2023-02-01T08:38:29;5.90;99.90
2435;DHT22;1228;51.022;6.764;2023-02-01T08:40:55;5.90;99.90
2435;DHT22;1228;51.022;6.764;2023-02-01T08:43:21;5.90;99.90
2435;DHT22;1228;51.022;6.764;2023-02-01T08:45:46;5.90;99.90
2435;DHT22;1228;51.022;6.764;2023-02-01T08:48:12;5.90;99.90
2435;DHT22;1228;51.022;6.764;2023-02-01T08:50:37;5.90;99.90
2435;DHT22;1228;51.022;6.764;2023-02-01T08:53:03;5.90;99.90
2435;DHT22;1228;51.022;6.764;2023-02-01T08:55:29;6.00;99.90
2435;DHT22;1228;51.022;6.764;2023-02-01T08:57:55;6.00;99.90
2435;DHT22;1228;51.022;6.764;2023-02-01T09:00:21;6.10;99.90
2435;DHT22;1228;51.022;6.764;2023-02-01T09:02:46;6.10;99.90
2435;DHT22;1228;51.022;6.764;2023-02-01T09:05:13;6.10;99.90
2435;DHT22;1228;51.022;6.764;2023-02-01T09:07:42;6.20;99.90
2435;DHT22;1228;51.022;6.764;2023-02-01T09:10:08;6.30;99.90
2435;DHT22;1228;51.022;6.764;2023-02-01T09:12:34;6.30;99.90
2435;DHT22;1228;51.022;6.764;2023-02-01T09:15:01;6.50;99.90
2435;DHT22;1228;51.022;6.764;2023-02-01T09:17:28;6.70;99.90
2435;DHT22;1228;51.022;6.764;2023-02-01T09:19:53;6.80;99.90
2435;DHT22;1228;51.022;6.764;2023-02-01T09:22:19;6.80;99.90
2435;DHT22;1228;51.022;6.764;2023-02-01T09:24:45;6.80;99.90
2435;DHT22;1228;51.022;6.764;2023-02-01T09:27:11;6.70;99.90
2435;DHT22;1228;51.022;6.764;2023-02-01T09:29:36;6.60;99.90
2435;DHT22;1228;51.022;6.764;2023-02-01T09:32:02;6.60;99.90
2435;DHT22;1228;51.022;6.764;2023-02-01T09:34:27;6.50;99.90
2435;DHT22;1228;51.022;6.764;2023-02-01T09:36:53;6.50;99.90
2435;DHT22;1228;51.022;6.764;2023-02-01T09:39:19;6.60;99.90
2435;DHT22;1228;51.022;6.764;2023-02-01T09:44:57;6.70;99.90
2435;DHT22;1228;51.022;6.764;2023-02-01T09:47:25;6.80;99.90
2435;DHT22;1228;51.022;6.764;2023-02-01T09:50:03;6.80;99.90
2435;DHT22;1228;51.022;6.764;2023-02-01T09:52:36;6.90;99.90
2435;DHT22;1228;51.022;6.764;2023-02-01T09:55:19;7.00;99.90
2435;DHT22;1228;51.022;6.764;2023-02-01T09:57:53;7.00;99.90
2435;DHT22;1228;51.022;6.764;2023-02-01T10:00:24;6.90;99.90
2435;DHT22;1228;51.022;6.764;2023-02-01T10:02:51;6.90;99.90
2435;DHT22;1228;51.022;6.764;2023-02-01T10:05:42;6.90;99.90
2435;DHT22;1228;51.022;6.764;2023-02-01T10:11:03;7.00;99.90
2435;DHT22;1228;51.022;6.764;2023-02-01T10:19:16;7.40;99.90
2435;DHT22;1228;51.022;6.764;2023-02-01T10:27:21;7.90;99.90
2435;DHT22;1228;51.022;6.764;2023-02-01T10:29:57;8.10;99.90
2435;DHT22;1228;51.022;6.764;2023-02-01T10:32:34;8.20;93.20
2435;DHT22;1228;51.022;6.764;2023-02-01T10:35:14;8.50;47.80
2435;DHT22;1228;51.022;6.764;2023-02-01T10:37:42;8.60;21.10
2435;DHT22;1228;51.022;6.764;2023-02-01T10:40:21;8.60;36.30
2435;DHT22;1228;51.022;6.764;2023-02-01T10:42:50;8.70;15.60
2435;DHT22;1228;51.022;6.764;2023-02-01T10:45:22;9.00;14.20
2435;DHT22;1228;51.022;6.764;2023-02-01T10:47:51;9.30;1.00
2435;DHT22;1228;51.022;6.764;2023-02-01T10:53:24;9.90;1.00
2435;DHT22;1228;51.022;6.764;2023-02-01T10:55:52;10.10;1.00
2435;DHT22;1228;51.022;6.764;2023-02-01T10:58:21;10.30;1.00
2435;DHT22;1228;51.022;6.764;2023-02-01T11:01:21;10.30;1.00
2435;DHT22;1228;51.022;6.764;2023-02-01T11:03:58;10.40;99.90
2435;DHT22;1228;51.022;6.764;2023-02-01T11:06:38;10.20;1.00
2435;DHT22;1228;51.022;6.764;2023-02-01T11:11:33;9.60;99.90
2435;DHT22;1228;51.022;6.764;2023-02-01T11:14:19;9.40;99.90
2435;DHT22;1228;51.022;6.764;2023-02-01T11:17:15;9.40;1.00
2435;DHT22;1228;51.022;6.764;2023-02-01T11:19:35;9.60;99.90
2435;DHT22;1228;51.022;6.764;2023-02-01T11:22:01;9.80;99.90
2435;DHT22;1228;51.022;6.764;2023-02-01T11:24:32;9.90;99.90
2435;DHT22;1228;51.022;6.764;2023-02-01T11:27:01;9.80;24.30
2435;DHT22;1228;51.022;6.764;2023-02-01T11:29:36;9.90;28.70
2435;DHT22;1228;51.022;6.764;2023-02-01T11:32:03;9.80;1.00
2435;DHT22;1228;51.022;6.764;2023-02-01T11:34:45;9.70;99.90
2435;DHT22;1228;51.022;6.764;2023-02-01T11:37:25;9.40;99.90
2435;DHT22;1228;51.022;6.764;2023-02-01T11:40:00;9.20;99.90
2435;DHT22;1228;51.022;6.764;2023-02-01T11:42:27;9.30;1.00
2435;DHT22;1228;51.022;6.764;2023-02-01T11:45:20;9.30;99.90
2435;DHT22;1228;51.022;6.764;2023-02-01T11:47:52;9.30;99.90
2435;DHT22;1228;51.022;6.764;2023-02-01T11:50:30;9.40;1.00
2435;DHT22;1228;51.022;6.764;2023-02-01T11:59:44;8.80;1.00
2435;DHT22;1228;51.022;6.764;2023-02-01T12:01:57;8.70;99.90
2435;DHT22;1228;51.022;6.764;2023-02-01T12:07:28;8.40;1.00
2435;DHT22;1228;51.022;6.764;2023-02-01T12:10:03;8.30;99.90
2435;DHT22;1228;51.022;6.764;2023-02-01T12:12:57;8.30;1.00
2435;DHT22;1228;51.022;6.764;2023-02-01T12:15:30;8.30;1.00
2435;DHT22;1228;51.022;6.764;2023-02-01T12:21:19;8.30;1.00
2435;DHT22;1228;51.022;6.764;2023-02-01T12:24:18;8.40;1.00
2435;DHT22;1228;51.022;6.764;2023-02-01T12:30:07;8.50;1.00
2435;DHT22;1228;51.022;6.764;2023-02-01T12:38:15;8.70;1.00
2435;DHT22;1228;51.022;6.764;2023-02-01T12:46:31;8.60;99.90
2435;DHT22;1228;51.022;6.764;2023-02-01T12:49:03;8.50;99.90
2435;DHT22;1228;51.022;6.764;2023-02-01T12:51:38;8.40;99.90
2435;DHT22;1228;51.022;6.764;2023-02-01T12:54:15;8.40;1.00
2435;DHT22;1228;51.022;6.764;2023-02-01T12:56:44;8.30;1.00
2435;DHT22;1228;51.022;6.764;2023-02-01T12:59:33;8.30;1.00
2435;DHT22;1228;51.022;6.764;2023-02-01T13:05:11;8.30;46.60
2435;DHT22;1228;51.022;6.764;2023-02-01T13:08:00;8.30;99.90
2435;DHT22;1228;51.022;6.764;2023-02-01T13:11:00;8.30;25.00
2435;DHT22;1228;51.022;6.764;2023-02-01T13:14:05;8.20;1.00
2435;DHT22;1228;51.022;6.764;2023-02-01T13:16:26;8.20;1.00
2435;DHT22;1228;51.022;6.764;2023-02-01T13:19:08;8.20;1.00
2435;DHT22;1228;51.022;6.764;2023-02-01T13:21:39;8.20;1.00
2435;DHT22;1228;51.022;6.764;2023-02-01T13:24:19;8.20;1.00
2435;DHT22;1228;51.022;6.764;2023-02-01T13:26:46;8.20;21.70
2435;DHT22;1228;51.022;6.764;2023-02-01T13:29:12;8.10;99.90
2435;DHT22;1228;51.022;6.764;2023-02-01T13:32:47;8.10;99.90
2435;DHT22;1228;51.022;6.764;2023-02-01T13:43:48;8.00;41.50
2435;DHT22;1228;51.022;6.764;2023-02-01T13:46:14;7.90;99.90
2435;DHT22;1228;51.022;6.764;2023-02-01T13:48:51;8.00;99.90
2435;DHT22;1228;51.022;6.764;2023-02-01T13:51:48;8.00;99.90
2435;DHT22;1228;51.022;6.764;2023-02-01T13:56:52;8.10;86.00
2435;DHT22;1228;51.022;6.764;2023-02-01T14:05:03;8.10;1.00
2435;DHT22;1228;51.022;6.764;2023-02-01T14:07:29;8.10;1.00
2435;DHT22;1228;51.022;6.764;2023-02-01T14:09:55;8.20;1.00
2435;DHT22;1228;51.022;6.764;2023-02-01T14:12:44;8.20;1.00
2435;DHT22;1228;51.022;6.764;2023-02-01T14:15:36;8.20;1.00
2435;DHT22;1228;51.022;6.764;2023-02-01T14:18:02;8.30;1.00
2435;DHT22;1228;51.022;6.764;2023-02-01T14:20:47;8.30;99.90
2435;DHT22;1228;51.022;6.764;2023-02-01T14:23:19;8.30;99.90
2435;DHT22;1228;51.022;6.764;2023-02-01T14:26:01;8.30;99.90
2435;DHT22;1228;51.022;6.764;2023-02-01T14:28:29;8.40;99.90
2435;DHT22;1228;51.022;6.764;2023-02-01T14:30:56;8.40;35.30
2435;DHT22;1228;51.022;6.764;2023-02-01T14:33:24;8.30;10.70
2435;DHT22;1228;51.022;6.764;2023-02-01T14:36:11;8.30;52.50
2435;DHT22;1228;51.022;6.764;2023-02-01T14:38:38;8.40;99.90
2435;DHT22;1228;51.022;6.764;2023-02-01T14:41:28;8.30;99.90
2435;DHT22;1228;51.022;6.764;2023-02-01T14:49:42;8.30;99.90
2435;DHT22;1228;51.022;6.764;2023-02-01T14:52:16;8.30;99.90
2435;DHT22;1228;51.022;6.764;2023-02-01T14:54:46;8.30;99.90
2435;DHT22;1228;51.022;6.764;2023-02-01T14:57:16;8.30;1.00
2435;DHT22;1228;51.022;6.764;2023-02-01T14:59:43;8.30;1.00
2435;DHT22;1228;51.022;6.764;2023-02-01T15:02:23;8.40;99.90
2435;DHT22;1228;51.022;6.764;2023-02-01T15:04:55;8.30;1.00
2435;DHT22;1228;51.022;6.764;2023-02-01T15:07:23;8.30;99.90
2435;DHT22;1228;51.022;6.764;2023-02-01T15:09:50;8.30;99.90
2435;DHT22;1228;51.022;6.764;2023-02-01T15:12:22;8.30;1.00
2435;DHT22;1228;51.022;6.764;2023-02-01T15:15:11;8.30;1.00
2435;DHT22;1228;51.022;6.764;2023-02-01T15:17:37;8.20;1.00
2435;DHT22;1228;51.022;6.764;2023-02-01T15:20:19;8.20;1.00
2435;DHT22;1228;51.022;6.764;2023-02-01T15:23:01;8.20;1.00
2435;DHT22;1228;51.022;6.764;2023-02-01T15:25:29;8.20;1.00
2435;DHT22;1228;51.022;6.764;2023-02-01T15:27:56;8.20;1.00
2435;DHT22;1228;51.022;6.764;2023-02-01T15:30:27;8.20;1.00
2435;DHT22;1228;51.022;6.764;2023-02-01T15:33:22;8.20;1.00
2435;DHT22;1228;51.022;6.764;2023-02-01T15:36:06;8.20;1.00
2435;DHT22;1228;51.022;6.764;2023-02-01T15:38:38;8.20;99.90
2435;DHT22;1228;51.022;6.764;2023-02-01T15:44:13;8.20;1.00
2435;DHT22;1228;51.022;6.764;2023-02-01T15:46:45;8.20;1.00
2435;DHT22;1228;51.022;6.764;2023-02-01T15:49:35;8.20;1.00
2435;DHT22;1228;51.022;6.764;2023-02-01T15:52:02;8.20;99.90
2435;DHT22;1228;51.022;6.764;2023-02-01T15:54:46;8.20;1.00
2435;DHT22;1228;51.022;6.764;2023-02-01T15:57:23;8.20;1.00
2435;DHT22;1228;51.022;6.764;2023-02-01T16:00:06;8.20;1.00
2435;DHT22;1228;51.022;6.764;2023-02-01T16:02:42;8.20;1.00
2435;DHT22;1228;51.022;6.764;2023-02-01T16:10:45;8.10;1.00
2435;DHT22;1228;51.022;6.764;2023-02-01T16:13:11;8.10;1.00
2435;DHT22;1228;51.022;6.764;2023-02-01T16:15:37;8.10;1.00
2435;DHT22;1228;51.022;6.764;2023-02-01T16:18:03;8.10;1.00
2435;DHT22;1228;51.022;6.764;2023-02-01T16:20:29;8.20;1.00
2435;DHT22;1228;51.022;6.764;2023-02-01T16:22:55;8.10;99.90
2435;DHT22;1228;51.022;6.764;2023-02-01T16:25:21;8.10;99.90
2435;DHT22;1228;51.022;6.764;2023-02-01T16:27:46;7.90;11.20
2435;DHT22;1228;51.022;6.764;2023-02-01T16:30:12;7.80;99.90
2435;DHT22;1228;51.022;6.764;2023-02-01T16:32:38;7.70;99.90
2435;DHT22;1228;51.022;6.764;2023-02-01T16:35:21;7.70;99.90
2435;DHT22;1228;51.022;6.764;2023-02-01T16:37:48;7.70;99.90
2435;DHT22;1228;51.022;6.764;2023-02-01T16:40:14;7.60;99.90
2435;DHT22;1228;51.022;6.764;2023-02-01T16:42:40;7.60;99.90
2435;DHT22;1228;51.022;6.764;2023-02-01T16:45:06;7.60;99.90
2435;DHT22;1228;51.022;6.764;2023-02-01T16:47:32;7.60;99.90
2435;DHT22;1228;51.022;6.764;2023-02-01T16:49:59;7.60;99.90
2435;DHT22;1228;51.022;6.764;2023-02-01T16:52:26;7.60;99.90
2435;DHT22;1228;51.022;6.764;2023-02-01T16:54:52;7.50;99.90
2435;DHT22;1228;51.022;6.764;2023-02-01T16:57:19;7.50;99.90
2435;DHT22;1228;51.022;6.764;2023-02-01T16:59:48;7.50;99.90
2435;DHT22;1228;51.022;6.764;2023-02-01T17:02:18;7.40;99.90
2435;DHT22;1228;51.022;6.764;2023-02-01T17:04:45;7.40;99.90
2435;DHT22;1228;51.022;6.764;2023-02-01T17:07:15;7.40;99.90
2435;DHT22;1228;51.022;6.764;2023-02-01T17:09:42;7.40;99.90
2435;DHT22;1228;51.022;6.764;2023-02-01T17:12:21;7.50;99.90
2435;DHT22;1228;51.022;6.764;2023-02-01T17:14:48;7.50;99.90
2435;DHT22;1228;51.022;6.764;2023-02-01T17:17:14;7.50;99.90
2435;DHT22;1228;51.022;6.764;2023-02-01T17:19:40;7.50;99.90
2435;DHT22;1228;51.022;6.764;2023-02-01T17:22:05;7.60;99.90
2435;DHT22;1228;51.022;6.764;2023-02-01T17:24:32;7.50;99.90
2435;DHT22;1228;51.022;6.764;2023-02-01T17:26:57;7.30;99.90
2435;DHT22;1228;51.022;6.764;2023-02-01T17:29:23;7.10;99.90
2435;DHT22;1228;51.022;6.764;2023-02-01T17:31:53;7.00;99.90
2435;DHT22;1228;51.022;6.764;2023-02-01T17:34:20;7.00;99.90
2435;DHT22;1228;51.022;6.764;2023-02-01T17:36:47;7.00;99.90
2435;DHT22;1228;51.022;6.764;2023-02-01T17:39:13;7.00;99.90
2435;DHT22;1228;51.022;6.764;2023-02-01T17:42:00;7.00;99.90
2435;DHT22;1228;51.022;6.764;2023-02-01T17:44:25;6.90;99.90
2435;DHT22;1228;51.022;6.764;2023-02-01T17:46:51;6.90;99.90
2435;DHT22;1228;51.022;6.764;2023-02-01T17:49:17;6.90;99.90
2435;DHT22;1228;51.022;6.764;2023-02-01T17:51:42;7.00;99.90
2435;DHT22;1228;51.022;6.764;2023-02-01T17:54:11;7.00;99.90
2435;DHT22;1228;51.022;6.764;2023-02-01T17:56:37;6.90;99.90
2435;DHT22;1228;51.022;6.764;2023-02-01T17:59:03;7.00;99.90
2435;DHT22;1228;51.022;6.764;2023-02-01T18:01:28;7.00;99.90
2435;DHT22;1228;51.022;6.764;2023-02-01T18:03:54;7.00;99.90
2435;DHT22;1228;51.022;6.764;2023-02-01T18:06:22;7.00;99.90
2435;DHT22;1228;51.022;6.764;2023-02-01T18:08:48;7.10;99.90
2435;DHT22;1228;51.022;6.764;2023-02-01T18:11:20;7.10;99.90
2435;DHT22;1228;51.022;6.764;2023-02-01T18:13:46;7.10;99.90
2435;DHT22;1228;51.022;6.764;2023-02-01T18:16:27;7.10;99.90
2435;DHT22;1228;51.022;6.764;2023-02-01T18:18:53;7.10;99.90
2435;DHT22;1228;51.022;6.764;2023-02-01T18:21:20;7.10;99.90
2435;DHT22;1228;51.022;6.764;2023-02-01T18:23:47;7.20;99.90
2435;DHT22;1228;51.022;6.764;2023-02-01T18:26:15;7.20;99.90
2435;DHT22;1228;51.022;6.764;2023-02-01T18:28:42;7.30;99.90
2435;DHT22;1228;51.022;6.764;2023-02-01T18:33:47;7.30;99.90
2435;DHT22;1228;51.022;6.764;2023-02-01T18:36:14;7.30;99.90
2435;DHT22;1228;51.022;6.764;2023-02-01T18:38:40;7.40;99.90
2435;DHT22;1228;51.022;6.764;2023-02-01T18:41:10;7.30;99.90
2435;DHT22;1228;51.022;6.764;2023-02-01T18:43:36;7.40;99.90
2435;DHT22;1228;51.022;6.764;2023-02-01T18:46:02;7.40;99.90
2435;DHT22;1228;51.022;6.764;2023-02-01T18:48:27;7.40;99.90
2435;DHT22;1228;51.022;6.764;2023-02-01T18:50:53;7.40;99.90